createdAt,value
2024-01-04T00:03:32.098Z,76.38
2024-01-04T00:08:35.311Z,76.72
2024-01-04T00:13:38.157Z,77.55
2024-01-04T00:18:41.408Z,77.39
2024-01-04T00:23:44.374Z,77.54
2024-01-04T00:28:47.328Z,77.67
2024-01-04T00:33:50.278Z,77.65
2024-01-04T00:38:53.294Z,77.67
2024-01-04T00:43:56.205Z,78.20
2024-01-04T00:48:59.248Z,79.15
2024-01-04T00:54:03.258Z,79.69
2024-01-04T00:59:06.208Z,79.49
2024-01-04T01:04:09.173Z,79.45
2024-01-04T01:09:13.598Z,79.84
2024-01-04T01:14:16.517Z,79.72
2024-01-04T01:19:19.604Z,79.00
2024-01-04T01:24:22.567Z,78.58
2024-01-04T01:29:25.517Z,79.37
2024-01-04T01:34:28.360Z,79.99
2024-01-04T01:39:31.442Z,78.73
2024-01-04T01:44:34.522Z,79.47
2024-01-04T01:49:38.021Z,77.82
2024-01-04T01:54:41.340Z,78.88
2024-01-04T01:59:46.239Z,78.52
2024-01-04T02:04:49.101Z,79.04
2024-01-04T02:09:52.101Z,79.31
2024-01-04T02:14:55.968Z,78.18
2024-01-04T02:19:59.039Z,79.42
2024-01-04T02:25:02.056Z,79.52
2024-01-04T02:30:06.185Z,79.16
2024-01-04T02:35:09.704Z,79.11
2024-01-04T02:40:13.152Z,79.21
2024-01-04T02:45:17.282Z,79.37
2024-01-04T02:50:20.250Z,79.71
2024-01-04T02:55:23.372Z,81.62
2024-01-04T03:00:28.253Z,80.08
2024-01-04T03:05:31.061Z,79.31
2024-01-04T03:10:33.847Z,80.76
2024-01-04T03:15:36.974Z,81.19
2024-01-04T03:20:40.006Z,80.91
2024-01-04T03:25:43.243Z,81.12
2024-01-04T03:30:46.173Z,81.26
2024-01-04T03:35:49.063Z,80.78
2024-01-04T03:40:51.861Z,80.95
2024-01-04T03:45:54.666Z,81.42
2024-01-04T03:50:57.509Z,81.40
2024-01-04T03:56:00.524Z,81.46
2024-01-04T04:01:04.300Z,81.73
2024-01-04T04:06:09.384Z,81.16
2024-01-04T04:11:19.664Z,81.62
2024-01-04T04:16:22.605Z,80.86
2024-01-04T04:21:26.109Z,81.35
2024-01-04T04:26:29.054Z,80.50
2024-01-04T04:31:31.891Z,81.05
2024-01-04T04:36:34.914Z,80.64
2024-01-04T04:41:39.178Z,80.20
2024-01-04T04:46:42.074Z,80.31
2024-01-04T04:51:49.873Z,79.19
2024-01-04T04:56:52.811Z,79.50
2024-01-04T05:01:55.838Z,79.23
2024-01-04T05:06:58.797Z,78.89
2024-01-04T05:12:01.914Z,78.87
2024-01-04T05:17:05.184Z,79.03
2024-01-04T05:22:08.112Z,79.67
2024-01-04T05:27:11.120Z,79.82
2024-01-04T05:32:14.037Z,82.05
2024-01-04T05:37:17.006Z,80.48
2024-01-04T05:42:19.945Z,80.45
2024-01-04T05:47:22.901Z,79.68
2024-01-04T05:52:25.983Z,80.27
2024-01-04T05:57:29.404Z,79.43
2024-01-04T06:02:32.397Z,79.22
2024-01-04T06:07:35.278Z,78.82
2024-01-04T06:12:38.159Z,79.19
2024-01-04T06:17:41.152Z,77.76
2024-01-04T06:22:44.512Z,77.83
2024-01-04T06:27:47.587Z,78.95
2024-01-04T06:32:50.596Z,79.37
2024-01-04T06:37:53.411Z,79.46
2024-01-04T06:42:57.163Z,79.54
2024-01-04T06:48:00.376Z,78.81
2024-01-04T06:53:04.549Z,79.62
2024-01-04T06:58:09.353Z,79.04
2024-01-04T07:03:12.472Z,79.57
2024-01-04T07:08:15.413Z,77.76
2024-01-04T07:13:18.631Z,78.12
2024-01-04T07:18:21.639Z,77.70
2024-01-04T07:23:24.634Z,78.25
2024-01-04T07:28:27.535Z,78.07
2024-01-04T07:33:30.478Z,78.44
2024-01-04T07:38:35.708Z,77.96
2024-01-04T07:43:38.669Z,78.17
2024-01-04T07:48:41.589Z,77.82
2024-01-04T07:53:44.683Z,79.80
2024-01-04T07:58:47.578Z,77.36
2024-01-04T08:03:50.581Z,77.55
2024-01-04T08:08:54.430Z,78.27
2024-01-04T08:13:57.289Z,77.06
2024-01-04T08:19:00.465Z,77.77
2024-01-04T08:24:04.699Z,76.67
2024-01-04T08:29:07.572Z,77.52
2024-01-04T08:34:10.923Z,77.04
2024-01-04T08:39:14.902Z,76.59
2024-01-04T08:44:17.935Z,78.44
2024-01-04T08:49:21.586Z,77.46
2024-01-04T08:54:25.090Z,77.78
2024-01-04T08:59:28.090Z,76.62
2024-01-04T09:04:30.908Z,77.25
2024-01-04T09:09:33.921Z,77.42
2024-01-04T09:14:37.143Z,76.53
2024-01-04T09:19:43.360Z,77.38
2024-01-04T09:24:46.624Z,76.83
2024-01-04T09:29:49.424Z,77.03
2024-01-04T09:34:52.712Z,77.75
2024-01-04T09:39:55.787Z,78.11
2024-01-04T09:45:03.675Z,79.52
2024-01-04T09:50:11.662Z,78.92
2024-01-04T09:55:14.861Z,80.53
2024-01-04T10:00:18.360Z,81.28
2024-01-04T10:05:23.988Z,84.04
2024-01-04T10:10:34.378Z,83.88
2024-01-04T10:15:38.125Z,82.66
2024-01-04T10:20:40.992Z,81.80
2024-01-04T10:25:45.341Z,81.02
2024-01-04T10:30:57.446Z,82.03
2024-01-04T10:36:12.921Z,81.98
2024-01-04T10:41:18.934Z,80.86
2024-01-04T10:46:21.879Z,81.62
2024-01-04T10:51:26.861Z,82.47
2024-01-04T10:56:34.390Z,81.77
2024-01-04T11:01:37.466Z,80.95
2024-01-04T11:06:41.453Z,80.26
2024-01-04T11:11:45.948Z,80.16
2024-01-04T11:17:15.130Z,78.60
2024-01-04T11:22:30.141Z,78.77
2024-01-04T11:27:34.457Z,78.32
2024-01-04T11:32:37.500Z,77.76
2024-01-04T11:37:40.640Z,76.36
2024-01-04T11:42:43.813Z,76.98
2024-01-04T11:47:49.589Z,76.27
2024-01-04T11:53:04.804Z,77.38
2024-01-04T11:58:15.710Z,76.22
2024-01-04T12:03:23.986Z,76.25
2024-01-04T12:08:33.887Z,76.25
2024-01-04T12:13:36.749Z,74.53
2024-01-04T12:18:39.782Z,75.50
2024-01-04T12:23:42.973Z,75.23
2024-01-04T12:28:46.092Z,74.93
2024-01-04T12:33:51.643Z,74.11
2024-01-04T12:39:06.891Z,74.91
2024-01-04T12:44:09.979Z,75.57
2024-01-04T12:49:17.398Z,75.03
2024-01-04T12:54:23.270Z,74.27
2024-01-04T12:59:26.176Z,75.59
2024-01-04T13:04:29.197Z,75.70
2024-01-04T13:09:41.226Z,74.58
2024-01-04T13:14:44.048Z,75.42
2024-01-04T13:19:46.989Z,74.95
2024-01-04T13:24:50.053Z,76.13
2024-01-04T13:29:52.977Z,76.80
2024-01-04T13:34:57.616Z,78.51
2024-01-04T13:40:01.228Z,78.74
2024-01-04T13:45:04.997Z,80.07
2024-01-04T13:50:08.359Z,80.02
2024-01-04T13:55:12.463Z,80.37
2024-01-04T14:00:16.207Z,80.57
2024-01-04T14:05:19.172Z,79.68
2024-01-04T14:10:21.986Z,79.03
2024-01-04T14:15:24.930Z,78.40
2024-01-04T14:20:29.523Z,78.63
2024-01-04T14:25:32.539Z,77.85
2024-01-04T14:30:35.528Z,79.01
2024-01-04T14:35:40.601Z,78.63
2024-01-04T14:40:44.367Z,78.30
2024-01-04T14:45:47.382Z,78.20
2024-01-04T14:50:52.406Z,77.54
2024-01-04T14:55:55.370Z,76.73
2024-01-04T15:00:58.485Z,76.84
2024-01-04T15:06:02.057Z,75.23
2024-01-04T15:11:05.999Z,76.22
2024-01-04T15:16:09.733Z,77.24
2024-01-04T15:21:13.917Z,79.86
2024-01-04T15:26:17.127Z,80.38
2024-01-04T15:31:20.218Z,80.89
2024-01-04T15:36:23.542Z,78.88
2024-01-04T15:41:26.882Z,78.42
2024-01-04T15:46:30.038Z,79.31
2024-01-04T15:51:33.146Z,78.01
2024-01-04T15:56:36.063Z,77.10
2024-01-04T16:01:40.466Z,75.13
2024-01-04T16:06:43.582Z,75.12
2024-01-04T16:11:47.172Z,77.59
2024-01-04T16:16:50.077Z,76.48
2024-01-04T16:21:52.926Z,75.61
2024-01-04T16:26:55.738Z,74.58
2024-01-04T16:31:59.614Z,76.12
2024-01-04T16:37:03.956Z,75.70
2024-01-04T16:42:07.135Z,76.87
2024-01-04T16:47:10.160Z,77.32
2024-01-04T16:52:13.257Z,77.73
2024-01-04T16:57:16.076Z,77.73
2024-01-04T17:02:18.945Z,75.16
2024-01-04T17:07:21.764Z,74.64
2024-01-04T17:12:24.619Z,75.08
2024-01-04T17:17:27.673Z,76.82
2024-01-04T17:22:31.325Z,75.28
2024-01-04T17:27:34.253Z,76.67
2024-01-04T17:32:37.391Z,74.88
2024-01-04T17:37:40.559Z,75.82
2024-01-04T17:42:45.025Z,73.89
2024-01-04T17:47:48.177Z,73.37
2024-01-04T17:52:51.265Z,71.92
2024-01-04T17:57:54.373Z,71.29
2024-01-04T18:02:58.593Z,73.08
2024-01-04T18:08:02.676Z,76.00
2024-01-04T18:13:05.706Z,73.17
2024-01-04T18:18:09.225Z,71.98
2024-01-04T18:23:12.687Z,71.03
2024-01-04T18:28:16.296Z,71.44
2024-01-04T18:33:19.610Z,71.34
2024-01-04T18:38:22.842Z,72.32
2024-01-04T18:43:25.640Z,71.96
2024-01-04T18:48:28.593Z,71.47
2024-01-04T18:53:34.649Z,73.84
2024-01-04T18:58:37.526Z,73.46
2024-01-04T19:03:41.016Z,72.41
2024-01-04T19:08:44.044Z,71.72
2024-01-04T19:13:47.263Z,72.29
2024-01-04T19:18:52.265Z,72.47
2024-01-04T19:23:57.009Z,74.07
2024-01-04T19:28:59.867Z,71.76
2024-01-04T19:34:03.131Z,72.56
2024-01-04T19:39:06.556Z,71.20
2024-01-04T19:44:09.661Z,69.34
2024-01-04T19:49:12.930Z,69.48
2024-01-04T19:54:17.708Z,70.68
2024-01-04T19:59:20.824Z,71.56
2024-01-04T20:04:23.903Z,73.04
2024-01-04T20:09:28.934Z,72.62
2024-01-04T20:14:32.123Z,72.37
2024-01-04T20:19:35.095Z,72.20
2024-01-04T20:24:38.366Z,73.29
2024-01-04T20:29:41.166Z,75.10
2024-01-04T20:34:44.273Z,74.27
2024-01-04T20:39:47.875Z,74.08
2024-01-04T20:44:51.027Z,73.08
2024-01-04T20:49:54.092Z,74.73
2024-01-04T20:54:57.698Z,74.26
2024-01-04T21:00:01.234Z,77.34
2024-01-04T21:05:08.474Z,76.67
2024-01-04T21:10:11.714Z,75.50
2024-01-04T21:15:15.073Z,77.29
2024-01-04T21:20:18.014Z,76.47
2024-01-04T21:25:21.031Z,78.19
2024-01-04T21:30:24.210Z,75.89
2024-01-04T21:35:28.883Z,76.98
2024-01-04T21:40:31.811Z,78.35
2024-01-04T21:45:40.367Z,78.84
2024-01-04T21:50:46.391Z,77.74
2024-01-04T21:55:49.481Z,78.40
2024-01-04T22:00:52.866Z,78.32
2024-01-04T22:05:55.929Z,78.21
2024-01-04T22:10:58.728Z,77.03
2024-01-04T22:16:01.743Z,76.08
2024-01-04T22:21:05.025Z,77.23
2024-01-04T22:26:07.852Z,77.00
2024-01-04T22:31:11.363Z,76.17
2024-01-04T22:36:14.296Z,77.30
2024-01-04T22:41:18.096Z,77.15
2024-01-04T22:46:21.045Z,77.75
2024-01-04T22:51:23.935Z,80.91
2024-01-04T22:56:27.062Z,78.71
2024-01-04T23:01:30.216Z,79.14
2024-01-04T23:06:33.574Z,76.63
2024-01-04T23:11:36.482Z,76.57
2024-01-04T23:16:39.605Z,79.16
2024-01-04T23:21:42.682Z,79.84
2024-01-04T23:26:46.436Z,80.29
2024-01-04T23:31:49.873Z,77.81
2024-01-04T23:36:52.991Z,79.76
2024-01-04T23:41:55.785Z,80.23
2024-01-04T23:46:59.040Z,80.21
2024-01-04T23:52:01.832Z,79.09
2024-01-04T23:57:05.160Z,80.06
